D/T METAR WX W/DIR W/SPE G/SPE TEMP DEWP
25/02/20 13:50 EGGP 251350Z 28015KT 9999 VCSH FEW017 SCT028 SCT039CB 07/02 Q0994 VCSH W (280°) 17.3mph 7°C 2°C
25/02/20 13:20 EGGP 251320Z 28011KT 9999 8000E -SHRAGR FEW017 SCT028 SCT035CB 05/02 Q0995 RESHGR -SHRA GR W (280°) 12.7mph 5°C 2°C
25/02/20 12:20 EGGP 251220Z 27011KT 9999 VCSH FEW022 SCT032 FEW045CB 07/02 Q0996 VCSH W (270°) 12.7mph 7°C 2°C
25/02/20 11:50 EGGP 251150Z 27012KT 9999 VCSH FEW022 SCT032 FEW045CB 08/03 Q0996 VCSH W (270°) 13.8mph 8°C 3°C
25/02/20 11:20 EGGP 251120Z 27016KT 9999 VCSH FEW022 SCT032 FEW045CB 07/02 Q0996 VCSH W (270°) 18.4mph 7°C 2°C
25/02/20 10:50 EGGP 251050Z 27017KT 9999 FEW022 SCT032 07/03 Q0997 W (270°) 19.6mph 7°C 3°C
25/02/20 10:20 EGGP 251020Z 27015KT 9999 FEW029 SCT048 08/04 Q0997 W (270°) 17.3mph 8°C 4°C
25/02/20 09:50 EGGP 250950Z 27017KT 9999 FEW026 SCT048 07/03 Q0997 W (270°) 19.6mph 7°C 3°C
25/02/20 09:20 EGGP 250920Z 26018KT 9999 FEW026 SCT048 07/03 Q0997 W (260°) 20.7mph 7°C 3°C
25/02/20 08:50 EGGP 250850Z 26017KT 9999 VCSH FEW022CB SCT047 06/02 Q0997 VCSH W (260°) 19.6mph 6°C 2°C
25/02/20 08:20 EGGP 250820Z 26016KT 9999 VCSH FEW022CB SCT047 05/03 Q0998 VCSH W (260°) 18.4mph 5°C 3°C
25/02/20 07:50 EGGP 250750Z 26015KT 9999 VCSH FEW022CB SCT044 04/02 Q0998 VCSH W (260°) 17.3mph 4°C 2°C
25/02/20 07:20 EGGP 250720Z 26014KT 9999 VCSH FEW015 FEW022CB SCT032 05/02 Q0998 VCSH W (260°) 16.1mph 5°C 2°C
25/02/20 06:50 EGGP 250650Z 25010KT 9999 VCSH FEW015 SCT022CB BKN032 04/02 Q0998 VCSH WSW (250°) 11.5mph 4°C 2°C
25/02/20 05:50 EGGP 250550Z 25008KT 9999 -SHRA FEW018 SCT022 05/03 Q0999 -SHRA WSW (250°) 9.2mph 5°C 3°C
25/02/20 05:20 EGGP 250520Z 26014KT 9999 -SHRA FEW018 SCT022 05/02 Q0999 -SHRA W (260°) 16.1mph 5°C 2°C
25/02/20 04:50 EGGP 250450Z 23004KT 160V260 9999 FEW032 04/01 Q0999 SW (230°) 4.6mph 4°C 1°C
25/02/20 04:20 EGGP 250420Z 20006KT 160V240 9999 FEW032 05/02 Q0999 SSW (200°) 6.9mph 5°C 2°C
25/02/20 03:50 EGGP 250350Z 26011KT 9999 -SHRA SCT024 BKN030 05/02 Q1000 -SHRA W (260°) 12.7mph 5°C 2°C
25/02/20 03:20 EGGP 250320Z 25008KT 220V290 9999 -SHRA SCT024 BKN030 05/03 Q1000 -SHRA WSW (250°) 9.2mph 5°C 3°C
25/02/20 02:50 EGGP 250250Z 25010KT 9999 -SHRA SCT024 BKN030 05/03 Q1000 RERA -SHRA WSW (250°) 11.5mph 5°C 3°C
25/02/20 02:20 EGGP 250220Z 26016KT 9999 SHRA SCT024 BKN030 05/03 Q1001 SHRA W (260°) 18.4mph 5°C 3°C
25/02/20 01:50 EGGP 250150Z 26012KT 9999 FEW031 06/02 Q1001 W (260°) 13.8mph 6°C 2°C
25/02/20 01:20 EGGP 250120Z 27015KT 9999 FEW031 06/02 Q1002 W (270°) 17.3mph 6°C 2°C
25/02/20 00:50 EGGP 250050Z 27015KT 9999 SCT025 BKN042 05/02 Q1002 W (270°) 17.3mph 5°C 2°C
25/02/20 00:20 EGGP 250020Z 27014KT 9999 SCT025 BKN042 05/02 Q1002 W (270°) 16.1mph 5°C 2°C
24/02/20 23:50 EGGP 242350Z 27017KT 9999 SCT025 06/03 Q1002 W (270°) 19.6mph 6°C 3°C
24/02/20 23:20 EGGP 242320Z 27019KT 9999 SCT025 06/03 Q1002 W (270°) 21.9mph 6°C 3°C
24/02/20 22:50 EGGP 242250Z 28017KT 9999 VCSH SCT025 07/04 Q1002 VCSH W (280°) 19.6mph 7°C 4°C
24/02/20 22:20 EGGP 242220Z 28019KT 9999 -SHRA FEW012 SCT025 07/03 Q1002 -SHRA W (280°) 21.9mph 7°C 3°C
24/02/20 21:50 EGGP 242150Z 28019KT 9999 -SHRA FEW014 SCT021 07/04 Q1002 -SHRA W (280°) 21.9mph 7°C 4°C
24/02/20 21:20 EGGP 242120Z 28023KT 9999 VCSH SCT021 SCT034CB 07/03 Q1002 VCSH W (280°) 26.5mph 7°C 3°C
24/02/20 20:50 EGGP 242050Z 28020KT 9999 VCSH SCT021 SCT034CB 06/04 Q1002 VCSH W (280°) 23.0mph 6°C 4°C
24/02/20 20:20 EGGP 242020Z 28024G37KT 9999 7000W SHRA FEW024 SCT033CB 07/04 Q1002 SHRA W (280°) 27.6mph 42.6mph 7°C 4°C
24/02/20 19:50 EGGP 241950Z 28024KT 9999 FEW034 08/03 Q1002 W (280°) 27.6mph 8°C 3°C
24/02/20 19:20 EGGP 241920Z 28024G36KT 9999 FEW029 SCT034 08/04 Q1002 W (280°) 27.6mph 41.4mph 8°C 4°C
24/02/20 18:50 EGGP 241850Z 28023KT 9999 FEW029 SCT035 07/03 Q1002 W (280°) 26.5mph 7°C 3°C
24/02/20 18:20 EGGP 241820Z 28024KT 9999 VCSH SCT029 SCT041 08/04 Q1001 VCSH W (280°) 27.6mph 8°C 4°C
24/02/20 17:50 EGGP 241750Z 28026KT 9999 VCSH FEW016 SCT034 BKN042CB 08/04 Q1001 VCSH W (280°) 29.9mph 8°C 4°C
24/02/20 17:20 EGGP 241720Z 27026G36KT 9999 FEW016 SCT030 BKN042CB 08/04 Q1001 W (270°) 29.9mph 41.4mph 8°C 4°C
24/02/20 16:50 EGGP 241650Z 28028G38KT 9999 VCSH FEW016 SCT021 SCT037CB 08/04 Q1000 VCSH W (280°) 32.2mph 43.7mph 8°C 4°C
24/02/20 16:20 EGGP 241620Z 28030G41KT 9999 -SHRA FEW018 SCT022 BKN033CB 08/05 Q1000 -SHRA W (280°) 34.5mph 47.2mph 8°C 5°C
24/02/20 15:50 EGGP 241550Z 28032G42KT 9999 -SHRA FEW018 SCT019 SCT037CB 09/06 Q0999 -SHRA W (280°) 36.8mph 48.3mph 9°C 6°C
24/02/20 15:20 EGGP 241520Z 27033G43KT 9999 FEW014 SCT030 10/06 Q0998 W (270°) 38.0mph 49.5mph 10°C 6°C
24/02/20 14:50 EGGP 241450Z 27030G42KT 9999 FEW020 SCT033 12/08 Q0998 W (270°) 34.5mph 48.3mph 12°C 8°C
24/02/20 14:20 EGGP 241420Z 26023G37KT 9999 SCT025 SCT031 13/09 Q0997 W (260°) 26.5mph 42.6mph 13°C 9°C
24/02/20 13:50 EGGP 241350Z 26022KT 9999 FEW025 SCT038 13/09 Q0997 W (260°) 25.3mph 13°C 9°C
24/02/20 13:20 EGGP 241320Z 26024KT 9999 SCT035 13/10 Q0997 W (260°) 27.6mph 13°C 10°C